ENSD/SDN METAR and TAF weather

Enter ICAO airport designator
Station Type Date Time Source
ENSD METAR 2022/08/13 11:50 UTC NOAA

ENSD 131150Z 07005KT 9999 FEW008 SCT039 BKN045 16/13 Q1021 RMK WIND RWY26 03004KT WIND 1140FT 00000KT


Station Type Date Time Source
ENSD Decoded METAR 2022/08/13 11:50 UTC NOAA

Sandane / Anda, Norway (ENSD) 61-50N 006-07E 60M
Aug 13, 2022 - 07:50 AM EDT / 2022.08.13 1150 UTC
Wind: from the ENE (070 degrees) at 6 MPH (5 KT):0
Visibility: greater than 7 mile(s):0
Sky conditions: mostly cloudy
Temperature: 60 F (16 C)
Dew Point: 55 F (13 C)
Relative Humidity: 82%
Pressure (altimeter): 30.15 in. Hg (1021 hPa)
ob: ENSD 131150Z 07005KT 9999 FEW008 SCT039 BKN045 16/13 Q1021 RMK WIND RWY26 03004KT WIND 1140FT 00000KT
cycle: 12

Station Type Date Time Source
ENSD TAF UTC NOAA

Error!

Example: see airport list